sensor_id;sensor_type;location;lat;lon;timestamp;P1;durP1;ratioP1;P2;durP2;ratioP2
46675;SDS011;32412;51.478;5.694;2023-06-04T00:00:47;4.15;;;1.83;;
46675;SDS011;32412;51.478;5.694;2023-06-04T00:03:13;6.03;;;1.50;;
46675;SDS011;32412;51.478;5.694;2023-06-04T00:05:39;2.83;;;1.88;;
46675;SDS011;32412;51.478;5.694;2023-06-04T00:08:05;4.20;;;1.60;;
46675;SDS011;32412;51.478;5.694;2023-06-04T00:10:31;2.50;;;1.70;;
46675;SDS011;32412;51.478;5.694;2023-06-04T00:12:58;2.65;;;1.80;;
46675;SDS011;32412;51.478;5.694;2023-06-04T00:15:25;4.50;;;1.85;;
46675;SDS011;32412;51.478;5.694;2023-06-04T00:17:51;3.58;;;1.58;;
46675;SDS011;32412;51.478;5.694;2023-06-04T00:20:17;1.65;;;1.55;;
46675;SDS011;32412;51.478;5.694;2023-06-04T00:22:43;1.58;;;1.30;;
46675;SDS011;32412;51.478;5.694;2023-06-04T00:25:09;1.80;;;1.65;;
46675;SDS011;32412;51.478;5.694;2023-06-04T00:27:35;3.58;;;1.48;;
46675;SDS011;32412;51.478;5.694;2023-06-04T00:30:01;4.05;;;1.70;;
46675;SDS011;32412;51.478;5.694;2023-06-04T00:32:28;5.00;;;1.58;;
46675;SDS011;32412;51.478;5.694;2023-06-04T00:34:54;2.75;;;1.42;;
46675;SDS011;32412;51.478;5.694;2023-06-04T00:37:23;4.88;;;1.95;;
46675;SDS011;32412;51.478;5.694;2023-06-04T00:39:55;1.98;;;1.45;;
46675;SDS011;32412;51.478;5.694;2023-06-04T00:42:24;3.83;;;1.77;;
46675;SDS011;32412;51.478;5.694;2023-06-04T00:44:50;3.20;;;1.85;;
46675;SDS011;32412;51.478;5.694;2023-06-04T00:47:16;3.35;;;1.50;;
46675;SDS011;32412;51.478;5.694;2023-06-04T00:49:45;1.85;;;1.35;;
46675;SDS011;32412;51.478;5.694;2023-06-04T00:52:12;6.57;;;1.88;;
46675;SDS011;32412;51.478;5.694;2023-06-04T00:54:40;1.98;;;1.50;;
46675;SDS011;32412;51.478;5.694;2023-06-04T00:57:06;1.63;;;1.52;;
46675;SDS011;32412;51.478;5.694;2023-06-04T00:59:33;3.67;;;1.85;;
46675;SDS011;32412;51.478;5.694;2023-06-04T01:02:03;3.33;;;1.85;;
46675;SDS011;32412;51.478;5.694;2023-06-04T01:04:36;1.73;;;1.50;;
46675;SDS011;32412;51.478;5.694;2023-06-04T01:07:20;2.53;;;1.70;;
46675;SDS011;32412;51.478;5.694;2023-06-04T01:09:48;4.72;;;1.58;;
46675;SDS011;32412;51.478;5.694;2023-06-04T01:12:14;3.40;;;1.75;;
46675;SDS011;32412;51.478;5.694;2023-06-04T01:14:41;2.08;;;1.55;;
46675;SDS011;32412;51.478;5.694;2023-06-04T01:17:10;3.83;;;1.65;;
46675;SDS011;32412;51.478;5.694;2023-06-04T01:22:17;3.40;;;2.20;;
46675;SDS011;32412;51.478;5.694;2023-06-04T01:25:04;5.55;;;1.42;;
46675;SDS011;32412;51.478;5.694;2023-06-04T01:27:38;4.10;;;1.50;;
46675;SDS011;32412;51.478;5.694;2023-06-04T01:30:05;4.30;;;1.33;;
46675;SDS011;32412;51.478;5.694;2023-06-04T01:32:33;3.60;;;1.83;;
46675;SDS011;32412;51.478;5.694;2023-06-04T01:34:59;5.63;;;1.35;;
46675;SDS011;32412;51.478;5.694;2023-06-04T01:37:25;3.47;;;1.80;;
46675;SDS011;32412;51.478;5.694;2023-06-04T01:39:51;4.25;;;1.40;;
46675;SDS011;32412;51.478;5.694;2023-06-04T01:42:17;4.60;;;1.60;;
46675;SDS011;32412;51.478;5.694;2023-06-04T01:44:43;4.97;;;1.50;;
46675;SDS011;32412;51.478;5.694;2023-06-04T01:47:08;2.28;;;1.70;;
46675;SDS011;32412;51.478;5.694;2023-06-04T01:49:34;1.60;;;1.40;;
46675;SDS011;32412;51.478;5.694;2023-06-04T01:52:02;4.18;;;1.80;;
46675;SDS011;32412;51.478;5.694;2023-06-04T01:54:28;3.10;;;1.67;;
46675;SDS011;32412;51.478;5.694;2023-06-04T01:56:55;3.35;;;1.48;;
46675;SDS011;32412;51.478;5.694;2023-06-04T01:59:20;2.47;;;1.67;;
46675;SDS011;32412;51.478;5.694;2023-06-04T02:01:58;2.53;;;1.73;;
46675;SDS011;32412;51.478;5.694;2023-06-04T02:08:33;3.08;;;1.80;;
46675;SDS011;32412;51.478;5.694;2023-06-04T02:11:00;3.55;;;1.50;;
46675;SDS011;32412;51.478;5.694;2023-06-04T02:13:29;3.13;;;1.67;;
46675;SDS011;32412;51.478;5.694;2023-06-04T02:15:57;2.60;;;1.42;;
46675;SDS011;32412;51.478;5.694;2023-06-04T02:18:23;5.72;;;1.88;;
46675;SDS011;32412;51.478;5.694;2023-06-04T02:20:50;5.15;;;1.70;;
46675;SDS011;32412;51.478;5.694;2023-06-04T02:23:17;2.95;;;1.95;;
46675;SDS011;32412;51.478;5.694;2023-06-04T02:25:44;2.25;;;1.63;;
46675;SDS011;32412;51.478;5.694;2023-06-04T02:28:10;1.95;;;1.55;;
46675;SDS011;32412;51.478;5.694;2023-06-04T02:30:39;3.33;;;1.70;;
46675;SDS011;32412;51.478;5.694;2023-06-04T02:33:05;2.67;;;1.63;;
46675;SDS011;32412;51.478;5.694;2023-06-04T02:35:31;4.55;;;1.80;;
46675;SDS011;32412;51.478;5.694;2023-06-04T02:37:56;2.05;;;1.70;;
46675;SDS011;32412;51.478;5.694;2023-06-04T02:40:28;4.53;;;1.58;;
46675;SDS011;32412;51.478;5.694;2023-06-04T02:42:54;4.15;;;1.63;;
46675;SDS011;32412;51.478;5.694;2023-06-04T02:45:20;2.95;;;1.48;;
46675;SDS011;32412;51.478;5.694;2023-06-04T02:47:47;9.70;;;1.63;;
46675;SDS011;32412;51.478;5.694;2023-06-04T02:50:13;4.40;;;1.70;;
46675;SDS011;32412;51.478;5.694;2023-06-04T02:52:43;2.58;;;1.60;;
46675;SDS011;32412;51.478;5.694;2023-06-04T02:55:08;3.33;;;1.92;;
46675;SDS011;32412;51.478;5.694;2023-06-04T02:57:36;1.80;;;1.65;;
46675;SDS011;32412;51.478;5.694;2023-06-04T03:00:05;2.10;;;1.85;;
46675;SDS011;32412;51.478;5.694;2023-06-04T03:02:44;3.40;;;2.03;;
46675;SDS011;32412;51.478;5.694;2023-06-04T03:05:11;3.85;;;1.85;;
46675;SDS011;32412;51.478;5.694;2023-06-04T03:07:42;2.42;;;1.63;;
46675;SDS011;32412;51.478;5.694;2023-06-04T03:10:10;3.85;;;1.60;;
46675;SDS011;32412;51.478;5.694;2023-06-04T03:12:36;2.70;;;1.70;;
46675;SDS011;32412;51.478;5.694;2023-06-04T03:15:02;4.45;;;1.77;;
46675;SDS011;32412;51.478;5.694;2023-06-04T03:17:29;2.60;;;1.65;;
46675;SDS011;32412;51.478;5.694;2023-06-04T03:19:56;2.50;;;1.48;;
46675;SDS011;32412;51.478;5.694;2023-06-04T03:22:22;2.55;;;2.03;;
46675;SDS011;32412;51.478;5.694;2023-06-04T03:24:48;4.15;;;1.88;;
46675;SDS011;32412;51.478;5.694;2023-06-04T03:27:14;2.15;;;1.67;;
46675;SDS011;32412;51.478;5.694;2023-06-04T03:29:40;2.85;;;1.58;;
46675;SDS011;32412;51.478;5.694;2023-06-04T03:32:06;1.65;;;1.45;;
46675;SDS011;32412;51.478;5.694;2023-06-04T03:34:32;1.98;;;1.73;;
46675;SDS011;32412;51.478;5.694;2023-06-04T03:36:58;3.97;;;1.77;;
46675;SDS011;32412;51.478;5.694;2023-06-04T03:39:24;6.65;;;2.05;;
46675;SDS011;32412;51.478;5.694;2023-06-04T03:41:50;3.40;;;1.88;;
46675;SDS011;32412;51.478;5.694;2023-06-04T03:44:16;5.22;;;1.80;;
46675;SDS011;32412;51.478;5.694;2023-06-04T03:46:43;3.13;;;1.63;;
46675;SDS011;32412;51.478;5.694;2023-06-04T03:49:09;3.00;;;1.92;;
46675;SDS011;32412;51.478;5.694;2023-06-04T03:51:36;2.70;;;1.73;;
46675;SDS011;32412;51.478;5.694;2023-06-04T03:54:05;4.28;;;1.75;;
46675;SDS011;32412;51.478;5.694;2023-06-04T03:56:31;2.00;;;1.58;;
46675;SDS011;32412;51.478;5.694;2023-06-04T03:58:57;4.57;;;2.00;;
46675;SDS011;32412;51.478;5.694;2023-06-04T04:01:23;2.58;;;1.70;;
46675;SDS011;32412;51.478;5.694;2023-06-04T04:03:50;2.33;;;1.38;;
46675;SDS011;32412;51.478;5.694;2023-06-04T04:06:17;6.22;;;1.98;;
46675;SDS011;32412;51.478;5.694;2023-06-04T04:08:43;4.22;;;2.08;;
46675;SDS011;32412;51.478;5.694;2023-06-04T04:11:10;3.40;;;1.73;;
46675;SDS011;32412;51.478;5.694;2023-06-04T04:13:35;5.68;;;1.90;;
46675;SDS011;32412;51.478;5.694;2023-06-04T04:16:01;3.17;;;2.10;;
46675;SDS011;32412;51.478;5.694;2023-06-04T04:18:27;3.85;;;1.90;;
46675;SDS011;32412;51.478;5.694;2023-06-04T04:20:53;3.97;;;1.80;;
46675;SDS011;32412;51.478;5.694;2023-06-04T04:23:21;4.90;;;1.85;;
46675;SDS011;32412;51.478;5.694;2023-06-04T04:25:48;4.13;;;2.17;;
46675;SDS011;32412;51.478;5.694;2023-06-04T04:28:14;3.03;;;1.42;;
46675;SDS011;32412;51.478;5.694;2023-06-04T04:30:42;4.95;;;1.90;;
46675;SDS011;32412;51.478;5.694;2023-06-04T04:33:11;6.53;;;2.15;;
46675;SDS011;32412;51.478;5.694;2023-06-04T04:35:40;2.50;;;1.73;;
46675;SDS011;32412;51.478;5.694;2023-06-04T04:38:09;2.70;;;2.05;;
46675;SDS011;32412;51.478;5.694;2023-06-04T04:40:35;5.43;;;1.83;;
46675;SDS011;32412;51.478;5.694;2023-06-04T04:43:01;2.92;;;1.88;;
46675;SDS011;32412;51.478;5.694;2023-06-04T04:45:27;3.42;;;2.22;;
46675;SDS011;32412;51.478;5.694;2023-06-04T04:47:53;3.60;;;2.45;;
46675;SDS011;32412;51.478;5.694;2023-06-04T04:50:19;2.72;;;1.88;;
46675;SDS011;32412;51.478;5.694;2023-06-04T04:52:45;2.97;;;1.95;;
46675;SDS011;32412;51.478;5.694;2023-06-04T04:55:10;6.47;;;1.90;;
46675;SDS011;32412;51.478;5.694;2023-06-04T04:57:38;2.78;;;1.85;;
46675;SDS011;32412;51.478;5.694;2023-06-04T05:00:04;4.10;;;2.15;;
46675;SDS011;32412;51.478;5.694;2023-06-04T05:02:37;3.10;;;1.70;;
46675;SDS011;32412;51.478;5.694;2023-06-04T05:05:03;3.42;;;1.88;;
46675;SDS011;32412;51.478;5.694;2023-06-04T05:07:29;4.65;;;2.25;;
46675;SDS011;32412;51.478;5.694;2023-06-04T05:09:57;2.70;;;2.15;;
46675;SDS011;32412;51.478;5.694;2023-06-04T05:12:25;7.68;;;2.30;;
46675;SDS011;32412;51.478;5.694;2023-06-04T05:14:51;2.78;;;1.95;;
46675;SDS011;32412;51.478;5.694;2023-06-04T05:17:17;5.03;;;1.98;;
46675;SDS011;32412;51.478;5.694;2023-06-04T05:19:46;3.15;;;2.20;;
46675;SDS011;32412;51.478;5.694;2023-06-04T05:22:12;5.65;;;2.10;;
46675;SDS011;32412;51.478;5.694;2023-06-04T05:24:40;3.45;;;2.25;;
46675;SDS011;32412;51.478;5.694;2023-06-04T05:27:06;3.10;;;1.90;;
46675;SDS011;32412;51.478;5.694;2023-06-04T05:29:34;3.13;;;1.92;;
46675;SDS011;32412;51.478;5.694;2023-06-04T05:32:00;3.70;;;1.90;;
46675;SDS011;32412;51.478;5.694;2023-06-04T05:34:26;4.32;;;2.08;;
46675;SDS011;32412;51.478;5.694;2023-06-04T05:36:51;3.97;;;1.90;;
46675;SDS011;32412;51.478;5.694;2023-06-04T05:39:17;3.22;;;2.08;;
46675;SDS011;32412;51.478;5.694;2023-06-04T05:41:45;2.92;;;2.13;;
46675;SDS011;32412;51.478;5.694;2023-06-04T05:44:11;5.95;;;2.35;;
46675;SDS011;32412;51.478;5.694;2023-06-04T05:46:39;7.28;;;2.38;;
46675;SDS011;32412;51.478;5.694;2023-06-04T05:49:13;4.22;;;2.40;;
46675;SDS011;32412;51.478;5.694;2023-06-04T05:51:39;3.75;;;2.15;;
46675;SDS011;32412;51.478;5.694;2023-06-04T05:54:07;1.92;;;1.70;;
46675;SDS011;32412;51.478;5.694;2023-06-04T05:56:33;5.75;;;2.35;;
46675;SDS011;32412;51.478;5.694;2023-06-04T05:58:59;3.47;;;1.90;;
46675;SDS011;32412;51.478;5.694;2023-06-04T06:01:25;3.85;;;2.10;;
46675;SDS011;32412;51.478;5.694;2023-06-04T06:03:50;2.58;;;1.90;;
46675;SDS011;32412;51.478;5.694;2023-06-04T06:06:16;3.45;;;1.80;;
46675;SDS011;32412;51.478;5.694;2023-06-04T06:08:43;4.72;;;2.40;;
46675;SDS011;32412;51.478;5.694;2023-06-04T06:11:09;3.42;;;2.17;;
46675;SDS011;32412;51.478;5.694;2023-06-04T06:13:34;2.47;;;2.10;;
46675;SDS011;32412;51.478;5.694;2023-06-04T06:16:00;5.95;;;1.80;;
46675;SDS011;32412;51.478;5.694;2023-06-04T06:18:27;3.63;;;1.95;;
46675;SDS011;32412;51.478;5.694;2023-06-04T06:20:52;3.88;;;1.95;;
46675;SDS011;32412;51.478;5.694;2023-06-04T06:23:18;6.22;;;2.20;;
46675;SDS011;32412;51.478;5.694;2023-06-04T06:25:46;6.20;;;1.88;;
46675;SDS011;32412;51.478;5.694;2023-06-04T06:28:14;4.22;;;1.83;;
46675;SDS011;32412;51.478;5.694;2023-06-04T06:30:40;3.08;;;1.95;;
46675;SDS011;32412;51.478;5.694;2023-06-04T06:33:06;2.67;;;1.98;;
46675;SDS011;32412;51.478;5.694;2023-06-04T06:35:33;5.75;;;2.17;;
46675;SDS011;32412;51.478;5.694;2023-06-04T06:37:58;2.45;;;2.03;;
46675;SDS011;32412;51.478;5.694;2023-06-04T06:40:24;4.35;;;1.88;;
46675;SDS011;32412;51.478;5.694;2023-06-04T06:42:50;5.43;;;2.45;;
46675;SDS011;32412;51.478;5.694;2023-06-04T06:45:16;3.72;;;2.03;;
46675;SDS011;32412;51.478;5.694;2023-06-04T06:47:45;4.03;;;2.08;;
46675;SDS011;32412;51.478;5.694;2023-06-04T06:50:11;2.28;;;1.77;;
46675;SDS011;32412;51.478;5.694;2023-06-04T06:52:37;2.50;;;1.90;;
46675;SDS011;32412;51.478;5.694;2023-06-04T06:55:03;4.22;;;2.10;;
46675;SDS011;32412;51.478;5.694;2023-06-04T06:57:30;3.50;;;2.03;;
46675;SDS011;32412;51.478;5.694;2023-06-04T06:59:56;2.55;;;2.20;;
46675;SDS011;32412;51.478;5.694;2023-06-04T07:02:22;3.30;;;1.85;;
46675;SDS011;32412;51.478;5.694;2023-06-04T07:04:50;3.72;;;2.40;;
46675;SDS011;32412;51.478;5.694;2023-06-04T07:07:16;3.67;;;2.25;;
46675;SDS011;32412;51.478;5.694;2023-06-04T07:09:42;2.67;;;1.88;;
46675;SDS011;32412;51.478;5.694;2023-06-04T07:12:08;4.90;;;2.08;;
46675;SDS011;32412;51.478;5.694;2023-06-04T07:14:36;4.07;;;2.08;;
46675;SDS011;32412;51.478;5.694;2023-06-04T07:17:05;2.47;;;1.90;;
46675;SDS011;32412;51.478;5.694;2023-06-04T07:19:34;2.60;;;2.10;;
46675;SDS011;32412;51.478;5.694;2023-06-04T07:21:59;4.25;;;2.10;;
46675;SDS011;32412;51.478;5.694;2023-06-04T07:24:25;2.63;;;1.92;;
46675;SDS011;32412;51.478;5.694;2023-06-04T07:26:57;4.78;;;1.70;;
46675;SDS011;32412;51.478;5.694;2023-06-04T07:29:25;2.03;;;1.80;;
46675;SDS011;32412;51.478;5.694;2023-06-04T07:31:54;1.75;;;1.65;;
46675;SDS011;32412;51.478;5.694;2023-06-04T07:34:19;2.85;;;1.73;;
46675;SDS011;32412;51.478;5.694;2023-06-04T07:36:45;3.08;;;1.92;;
46675;SDS011;32412;51.478;5.694;2023-06-04T07:39:12;6.05;;;2.45;;
46675;SDS011;32412;51.478;5.694;2023-06-04T07:41:38;2.10;;;1.73;;
46675;SDS011;32412;51.478;5.694;2023-06-04T07:44:04;3.38;;;1.95;;
46675;SDS011;32412;51.478;5.694;2023-06-04T07:46:30;3.60;;;1.50;;
46675;SDS011;32412;51.478;5.694;2023-06-04T07:48:55;3.05;;;1.80;;
46675;SDS011;32412;51.478;5.694;2023-06-04T07:51:21;3.05;;;1.83;;
46675;SDS011;32412;51.478;5.694;2023-06-04T07:53:50;5.25;;;2.10;;
46675;SDS011;32412;51.478;5.694;2023-06-04T07:56:16;4.43;;;1.77;;
46675;SDS011;32412;51.478;5.694;2023-06-04T07:58:43;4.65;;;1.60;;
46675;SDS011;32412;51.478;5.694;2023-06-04T08:01:10;2.88;;;2.00;;
46675;SDS011;32412;51.478;5.694;2023-06-04T08:03:36;1.60;;;1.50;;
46675;SDS011;32412;51.478;5.694;2023-06-04T08:06:02;3.42;;;2.40;;
46675;SDS011;32412;51.478;5.694;2023-06-04T08:08:27;5.25;;;1.95;;
46675;SDS011;32412;51.478;5.694;2023-06-04T08:10:53;2.90;;;2.00;;
46675;SDS011;32412;51.478;5.694;2023-06-04T08:13:19;2.83;;;1.42;;
46675;SDS011;32412;51.478;5.694;2023-06-04T08:15:45;1.90;;;1.40;;
46675;SDS011;32412;51.478;5.694;2023-06-04T08:18:11;3.65;;;1.30;;
46675;SDS011;32412;51.478;5.694;2023-06-04T08:20:37;3.63;;;1.80;;
46675;SDS011;32412;51.478;5.694;2023-06-04T08:23:02;2.05;;;1.30;;
46675;SDS011;32412;51.478;5.694;2023-06-04T08:25:28;2.47;;;1.60;;
46675;SDS011;32412;51.478;5.694;2023-06-04T08:28:01;1.90;;;1.30;;
46675;SDS011;32412;51.478;5.694;2023-06-04T08:30:35;2.33;;;1.70;;
46675;SDS011;32412;51.478;5.694;2023-06-04T08:33:01;5.30;;;1.45;;
46675;SDS011;32412;51.478;5.694;2023-06-04T08:35:27;4.47;;;1.75;;
46675;SDS011;32412;51.478;5.694;2023-06-04T08:37:53;4.43;;;1.73;;
46675;SDS011;32412;51.478;5.694;2023-06-04T08:40:19;2.17;;;1.45;;
46675;SDS011;32412;51.478;5.694;2023-06-04T08:42:44;4.57;;;1.17;;
46675;SDS011;32412;51.478;5.694;2023-06-04T08:45:12;3.03;;;1.45;;
46675;SDS011;32412;51.478;5.694;2023-06-04T08:47:43;1.23;;;1.00;;
46675;SDS011;32412;51.478;5.694;2023-06-04T08:50:13;2.08;;;1.48;;
46675;SDS011;32412;51.478;5.694;2023-06-04T08:52:44;3.72;;;1.10;;
46675;SDS011;32412;51.478;5.694;2023-06-04T08:55:11;2.72;;;0.95;;
46675;SDS011;32412;51.478;5.694;2023-06-04T08:57:39;6.85;;;1.52;;
46675;SDS011;32412;51.478;5.694;2023-06-04T09:00:05;1.80;;;1.00;;
46675;SDS011;32412;51.478;5.694;2023-06-04T09:02:36;6.90;;;1.02;;
46675;SDS011;32412;51.478;5.694;2023-06-04T09:05:05;2.65;;;0.80;;
46675;SDS011;32412;51.478;5.694;2023-06-04T09:07:38;1.58;;;0.93;;
46675;SDS011;32412;51.478;5.694;2023-06-04T09:10:09;2.05;;;0.90;;
46675;SDS011;32412;51.478;5.694;2023-06-04T09:12:37;1.70;;;0.88;;
46675;SDS011;32412;51.478;5.694;2023-06-04T09:15:10;1.00;;;0.80;;
46675;SDS011;32412;51.478;5.694;2023-06-04T09:17:36;3.17;;;1.20;;
46675;SDS011;32412;51.478;5.694;2023-06-04T09:20:02;1.00;;;0.90;;
46675;SDS011;32412;51.478;5.694;2023-06-04T09:22:35;2.58;;;1.08;;
46675;SDS011;32412;51.478;5.694;2023-06-04T09:25:03;2.38;;;0.90;;
46675;SDS011;32412;51.478;5.694;2023-06-04T09:27:37;1.25;;;1.00;;
46675;SDS011;32412;51.478;5.694;2023-06-04T09:30:05;1.00;;;0.90;;
46675;SDS011;32412;51.478;5.694;2023-06-04T09:32:32;1.77;;;0.90;;
46675;SDS011;32412;51.478;5.694;2023-06-04T09:35:13;1.30;;;0.70;;
46675;SDS011;32412;51.478;5.694;2023-06-04T09:37:39;1.80;;;0.90;;
46675;SDS011;32412;51.478;5.694;2023-06-04T09:40:06;2.95;;;0.93;;
46675;SDS011;32412;51.478;5.694;2023-06-04T09:42:43;0.77;;;0.77;;
46675;SDS011;32412;51.478;5.694;2023-06-04T09:45:25;1.45;;;0.88;;
46675;SDS011;32412;51.478;5.694;2023-06-04T09:47:56;3.50;;;0.90;;
46675;SDS011;32412;51.478;5.694;2023-06-04T09:50:32;1.40;;;0.90;;
46675;SDS011;32412;51.478;5.694;2023-06-04T09:52:59;1.77;;;0.70;;
46675;SDS011;32412;51.478;5.694;2023-06-04T09:55:27;1.38;;;0.85;;
46675;SDS011;32412;51.478;5.694;2023-06-04T09:57:52;0.80;;;0.80;;
46675;SDS011;32412;51.478;5.694;2023-06-04T10:00:19;1.52;;;0.80;;
46675;SDS011;32412;51.478;5.694;2023-06-04T10:02:46;1.15;;;0.80;;
46675;SDS011;32412;51.478;5.694;2023-06-04T10:05:12;1.05;;;0.90;;
46675;SDS011;32412;51.478;5.694;2023-06-04T10:07:43;0.85;;;0.80;;
46675;SDS011;32412;51.478;5.694;2023-06-04T10:10:16;1.75;;;0.73;;
46675;SDS011;32412;51.478;5.694;2023-06-04T10:12:45;2.05;;;0.85;;
46675;SDS011;32412;51.478;5.694;2023-06-04T10:15:19;3.13;;;1.08;;
46675;SDS011;32412;51.478;5.694;2023-06-04T10:17:46;1.92;;;0.80;;
46675;SDS011;32412;51.478;5.694;2023-06-04T10:20:13;0.80;;;0.80;;
46675;SDS011;32412;51.478;5.694;2023-06-04T10:22:39;1.38;;;1.00;;
46675;SDS011;32412;51.478;5.694;2023-06-04T10:25:06;2.17;;;1.10;;
46675;SDS011;32412;51.478;5.694;2023-06-04T10:27:34;3.80;;;0.98;;
46675;SDS011;32412;51.478;5.694;2023-06-04T10:30:02;1.25;;;0.82;;
46675;SDS011;32412;51.478;5.694;2023-06-04T10:32:29;1.15;;;0.63;;
46675;SDS011;32412;51.478;5.694;2023-06-04T10:34:55;2.05;;;1.00;;
46675;SDS011;32412;51.478;5.694;2023-06-04T10:37:23;0.88;;;0.88;;
46675;SDS011;32412;51.478;5.694;2023-06-04T10:39:54;0.95;;;0.93;;
46675;SDS011;32412;51.478;5.694;2023-06-04T10:42:21;2.00;;;0.80;;
46675;SDS011;32412;51.478;5.694;2023-06-04T10:44:49;1.25;;;0.82;;
46675;SDS011;32412;51.478;5.694;2023-06-04T10:47:25;1.55;;;0.90;;
46675;SDS011;32412;51.478;5.694;2023-06-04T10:49:53;1.58;;;0.77;;
46675;SDS011;32412;51.478;5.694;2023-06-04T10:52:19;1.42;;;0.88;;
46675;SDS011;32412;51.478;5.694;2023-06-04T10:54:48;2.75;;;0.68;;
46675;SDS011;32412;51.478;5.694;2023-06-04T10:57:14;1.95;;;0.73;;
46675;SDS011;32412;51.478;5.694;2023-06-04T10:59:57;1.33;;;0.90;;
46675;SDS011;32412;51.478;5.694;2023-06-04T11:02:27;1.23;;;0.77;;
46675;SDS011;32412;51.478;5.694;2023-06-04T11:05:03;2.38;;;0.90;;
46675;SDS011;32412;51.478;5.694;2023-06-04T11:07:43;1.30;;;1.05;;
46675;SDS011;32412;51.478;5.694;2023-06-04T11:10:11;2.90;;;1.13;;
46675;SDS011;32412;51.478;5.694;2023-06-04T11:12:52;1.55;;;1.20;;
46675;SDS011;32412;51.478;5.694;2023-06-04T11:15:17;1.50;;;0.93;;
46675;SDS011;32412;51.478;5.694;2023-06-04T11:17:50;2.33;;;1.00;;
46675;SDS011;32412;51.478;5.694;2023-06-04T11:20:23;1.92;;;0.88;;
46675;SDS011;32412;51.478;5.694;2023-06-04T11:22:53;1.58;;;0.90;;
46675;SDS011;32412;51.478;5.694;2023-06-04T11:25:26;2.10;;;0.90;;
46675;SDS011;32412;51.478;5.694;2023-06-04T11:27:53;5.20;;;1.30;;
46675;SDS011;32412;51.478;5.694;2023-06-04T11:30:20;1.92;;;1.30;;
46675;SDS011;32412;51.478;5.694;2023-06-04T11:32:46;3.33;;;1.20;;
46675;SDS011;32412;51.478;5.694;2023-06-04T11:35:12;1.30;;;1.13;;
46675;SDS011;32412;51.478;5.694;2023-06-04T11:37:38;1.20;;;0.98;;
46675;SDS011;32412;51.478;5.694;2023-06-04T11:40:15;1.00;;;1.00;;
46675;SDS011;32412;51.478;5.694;2023-06-04T11:42:42;2.08;;;1.20;;
46675;SDS011;32412;51.478;5.694;2023-06-04T11:45:09;1.38;;;1.00;;
46675;SDS011;32412;51.478;5.694;2023-06-04T11:47:39;1.98;;;1.00;;
46675;SDS011;32412;51.478;5.694;2023-06-04T11:50:06;0.98;;;0.98;;
46675;SDS011;32412;51.478;5.694;2023-06-04T11:52:33;2.47;;;1.13;;
46675;SDS011;32412;51.478;5.694;2023-06-04T11:54:59;3.60;;;1.30;;
46675;SDS011;32412;51.478;5.694;2023-06-04T11:57:25;1.33;;;1.13;;
46675;SDS011;32412;51.478;5.694;2023-06-04T11:59:50;1.27;;;1.05;;
46675;SDS011;32412;51.478;5.694;2023-06-04T12:02:16;1.17;;;1.08;;
46675;SDS011;32412;51.478;5.694;2023-06-04T12:04:44;3.83;;;1.20;;
46675;SDS011;32412;51.478;5.694;2023-06-04T12:07:10;3.25;;;1.20;;
46675;SDS011;32412;51.478;5.694;2023-06-04T12:09:36;2.17;;;1.20;;
46675;SDS011;32412;51.478;5.694;2023-06-04T12:12:06;3.05;;;1.58;;
46675;SDS011;32412;51.478;5.694;2023-06-04T12:14:33;2.30;;;1.10;;
46675;SDS011;32412;51.478;5.694;2023-06-04T12:17:05;2.20;;;1.13;;
46675;SDS011;32412;51.478;5.694;2023-06-04T12:19:32;1.20;;;1.00;;
46675;SDS011;32412;51.478;5.694;2023-06-04T12:22:02;2.35;;;1.00;;
46675;SDS011;32412;51.478;5.694;2023-06-04T12:24:30;1.85;;;1.00;;
46675;SDS011;32412;51.478;5.694;2023-06-04T12:27:04;1.10;;;0.90;;
46675;SDS011;32412;51.478;5.694;2023-06-04T12:29:31;1.20;;;1.10;;
46675;SDS011;32412;51.478;5.694;2023-06-04T12:32:02;1.25;;;1.10;;
46675;SDS011;32412;51.478;5.694;2023-06-04T12:34:30;4.90;;;1.92;;
46675;SDS011;32412;51.478;5.694;2023-06-04T12:36:59;2.05;;;1.20;;
46675;SDS011;32412;51.478;5.694;2023-06-04T12:39:25;2.78;;;1.10;;
46675;SDS011;32412;51.478;5.694;2023-06-04T12:41:51;1.08;;;0.98;;
46675;SDS011;32412;51.478;5.694;2023-06-04T12:44:17;1.92;;;1.00;;
46675;SDS011;32412;51.478;5.694;2023-06-04T12:46:42;1.38;;;1.10;;
46675;SDS011;32412;51.478;5.694;2023-06-04T12:49:08;1.00;;;0.90;;
46675;SDS011;32412;51.478;5.694;2023-06-04T12:51:34;1.30;;;1.20;;
46675;SDS011;32412;51.478;5.694;2023-06-04T12:54:00;1.88;;;1.10;;
46675;SDS011;32412;51.478;5.694;2023-06-04T12:56:25;1.35;;;1.00;;
46675;SDS011;32412;51.478;5.694;2023-06-04T12:58:51;4.28;;;1.30;;
46675;SDS011;32412;51.478;5.694;2023-06-04T13:01:17;1.48;;;1.35;;
46675;SDS011;32412;51.478;5.694;2023-06-04T13:03:43;4.45;;;1.13;;
46675;SDS011;32412;51.478;5.694;2023-06-04T13:06:11;1.15;;;1.05;;
46675;SDS011;32412;51.478;5.694;2023-06-04T13:08:37;1.13;;;1.02;;
46675;SDS011;32412;51.478;5.694;2023-06-04T13:11:05;1.88;;;1.20;;
46675;SDS011;32412;51.478;5.694;2023-06-04T13:13:31;3.72;;;1.20;;
46675;SDS011;32412;51.478;5.694;2023-06-04T13:15:57;2.15;;;1.30;;
46675;SDS011;32412;51.478;5.694;2023-06-04T13:18:22;1.40;;;1.05;;
46675;SDS011;32412;51.478;5.694;2023-06-04T13:20:48;1.95;;;1.17;;
46675;SDS011;32412;51.478;5.694;2023-06-04T13:23:14;1.20;;;1.10;;
46675;SDS011;32412;51.478;5.694;2023-06-04T13:25:40;2.15;;;1.20;;
46675;SDS011;32412;51.478;5.694;2023-06-04T13:28:06;3.17;;;1.23;;
46675;SDS011;32412;51.478;5.694;2023-06-04T13:30:33;3.78;;;1.00;;
46675;SDS011;32412;51.478;5.694;2023-06-04T13:33:03;2.35;;;1.35;;
46675;SDS011;32412;51.478;5.694;2023-06-04T13:35:30;1.65;;;1.17;;
46675;SDS011;32412;51.478;5.694;2023-06-04T13:37:56;1.15;;;1.02;;
46675;SDS011;32412;51.478;5.694;2023-06-04T13:40:21;3.33;;;1.30;;
46675;SDS011;32412;51.478;5.694;2023-06-04T13:42:48;2.10;;;1.20;;
46675;SDS011;32412;51.478;5.694;2023-06-04T13:45:13;1.23;;;1.13;;
46675;SDS011;32412;51.478;5.694;2023-06-04T13:47:41;1.45;;;1.10;;
46675;SDS011;32412;51.478;5.694;2023-06-04T13:50:06;1.20;;;1.00;;
46675;SDS011;32412;51.478;5.694;2023-06-04T13:52:32;1.70;;;1.00;;
46675;SDS011;32412;51.478;5.694;2023-06-04T13:54:58;1.23;;;1.13;;
46675;SDS011;32412;51.478;5.694;2023-06-04T13:57:24;2.38;;;1.52;;
46675;SDS011;32412;51.478;5.694;2023-06-04T13:59:50;2.88;;;1.15;;
46675;SDS011;32412;51.478;5.694;2023-06-04T14:02:16;3.95;;;1.35;;
46675;SDS011;32412;51.478;5.694;2023-06-04T14:04:42;3.42;;;1.30;;
46675;SDS011;32412;51.478;5.694;2023-06-04T14:07:08;1.98;;;1.13;;
46675;SDS011;32412;51.478;5.694;2023-06-04T14:09:34;4.72;;;1.20;;
46675;SDS011;32412;51.478;5.694;2023-06-04T14:12:00;1.55;;;1.30;;
46675;SDS011;32412;51.478;5.694;2023-06-04T14:14:27;1.48;;;1.17;;
46675;SDS011;32412;51.478;5.694;2023-06-04T14:16:59;1.65;;;1.10;;
46675;SDS011;32412;51.478;5.694;2023-06-04T14:19:28;1.98;;;1.20;;
46675;SDS011;32412;51.478;5.694;2023-06-04T14:21:53;1.33;;;1.00;;
46675;SDS011;32412;51.478;5.694;2023-06-04T14:24:19;4.00;;;1.83;;
46675;SDS011;32412;51.478;5.694;2023-06-04T14:26:45;1.52;;;1.23;;
46675;SDS011;32412;51.478;5.694;2023-06-04T14:29:10;2.70;;;1.30;;
46675;SDS011;32412;51.478;5.694;2023-06-04T14:31:36;1.00;;;1.00;;
46675;SDS011;32412;51.478;5.694;2023-06-04T14:34:02;2.35;;;1.10;;
46675;SDS011;32412;51.478;5.694;2023-06-04T14:36:28;2.03;;;1.23;;
46675;SDS011;32412;51.478;5.694;2023-06-04T14:38:54;6.55;;;4.97;;
46675;SDS011;32412;51.478;5.694;2023-06-04T14:41:20;1.88;;;1.40;;
46675;SDS011;32412;51.478;5.694;2023-06-04T14:43:45;2.33;;;1.20;;
46675;SDS011;32412;51.478;5.694;2023-06-04T14:46:11;1.45;;;0.98;;
46675;SDS011;32412;51.478;5.694;2023-06-04T14:48:36;2.75;;;1.25;;
46675;SDS011;32412;51.478;5.694;2023-06-04T14:51:05;1.80;;;1.35;;
46675;SDS011;32412;51.478;5.694;2023-06-04T14:53:31;3.17;;;1.20;;
46675;SDS011;32412;51.478;5.694;2023-06-04T14:56:00;1.83;;;1.30;;